sensor_id;sensor_type;location;lat;lon;timestamp;P1;durP1;ratioP1;P2;durP2;ratioP2
22648;SDS011;11491;41.942;24.220;2023-09-30T00:02:24;14.20;;;7.95;;
22648;SDS011;11491;41.942;24.220;2023-09-30T00:04:53;14.68;;;8.25;;
22648;SDS011;11491;41.942;24.220;2023-09-30T00:07:20;12.65;;;8.38;;
22648;SDS011;11491;41.942;24.220;2023-09-30T00:09:46;13.10;;;8.65;;
22648;SDS011;11491;41.942;24.220;2023-09-30T00:12:13;9.65;;;7.15;;
22648;SDS011;11491;41.942;24.220;2023-09-30T00:14:40;14.60;;;8.98;;
22648;SDS011;11491;41.942;24.220;2023-09-30T00:17:07;15.73;;;9.48;;
22648;SDS011;11491;41.942;24.220;2023-09-30T00:19:33;16.27;;;9.15;;
22648;SDS011;11491;41.942;24.220;2023-09-30T00:22:01;18.35;;;10.38;;
22648;SDS011;11491;41.942;24.220;2023-09-30T00:24:28;16.65;;;8.82;;
22648;SDS011;11491;41.942;24.220;2023-09-30T00:26:55;20.73;;;10.07;;
22648;SDS011;11491;41.942;24.220;2023-09-30T00:29:22;14.50;;;8.50;;
22648;SDS011;11491;41.942;24.220;2023-09-30T00:31:49;12.48;;;6.82;;
22648;SDS011;11491;41.942;24.220;2023-09-30T00:34:15;11.77;;;7.05;;
22648;SDS011;11491;41.942;24.220;2023-09-30T00:36:42;14.55;;;7.68;;
22648;SDS011;11491;41.942;24.220;2023-09-30T00:39:10;14.50;;;8.07;;
22648;SDS011;11491;41.942;24.220;2023-09-30T00:41:38;12.13;;;7.50;;
22648;SDS011;11491;41.942;24.220;2023-09-30T00:44:05;15.38;;;7.72;;
22648;SDS011;11491;41.942;24.220;2023-09-30T00:46:33;11.60;;;7.82;;
22648;SDS011;11491;41.942;24.220;2023-09-30T00:49:02;12.40;;;7.60;;
22648;SDS011;11491;41.942;24.220;2023-09-30T00:51:29;13.02;;;6.70;;
22648;SDS011;11491;41.942;24.220;2023-09-30T00:53:59;12.23;;;7.55;;
22648;SDS011;11491;41.942;24.220;2023-09-30T00:56:28;12.90;;;7.43;;
22648;SDS011;11491;41.942;24.220;2023-09-30T00:58:56;12.52;;;7.35;;
22648;SDS011;11491;41.942;24.220;2023-09-30T01:01:23;16.45;;;7.50;;
22648;SDS011;11491;41.942;24.220;2023-09-30T01:03:51;11.27;;;7.03;;
22648;SDS011;11491;41.942;24.220;2023-09-30T01:06:17;11.82;;;7.30;;
22648;SDS011;11491;41.942;24.220;2023-09-30T01:08:44;11.50;;;7.10;;
22648;SDS011;11491;41.942;24.220;2023-09-30T01:11:11;13.20;;;7.40;;
22648;SDS011;11491;41.942;24.220;2023-09-30T01:13:40;17.02;;;8.57;;
22648;SDS011;11491;41.942;24.220;2023-09-30T01:16:08;13.40;;;8.32;;
22648;SDS011;11491;41.942;24.220;2023-09-30T01:18:37;11.73;;;7.25;;
22648;SDS011;11491;41.942;24.220;2023-09-30T01:21:07;13.32;;;7.43;;
22648;SDS011;11491;41.942;24.220;2023-09-30T01:23:37;10.02;;;7.10;;
22648;SDS011;11491;41.942;24.220;2023-09-30T01:26:04;12.73;;;7.20;;
22648;SDS011;11491;41.942;24.220;2023-09-30T01:28:34;13.55;;;6.95;;
22648;SDS011;11491;41.942;24.220;2023-09-30T01:31:01;11.60;;;6.50;;
22648;SDS011;11491;41.942;24.220;2023-09-30T01:33:28;10.00;;;6.97;;
22648;SDS011;11491;41.942;24.220;2023-09-30T01:35:54;12.27;;;7.30;;
22648;SDS011;11491;41.942;24.220;2023-09-30T01:38:21;10.63;;;6.85;;
22648;SDS011;11491;41.942;24.220;2023-09-30T01:40:49;10.43;;;7.35;;
22648;SDS011;11491;41.942;24.220;2023-09-30T01:43:16;15.02;;;7.05;;
22648;SDS011;11491;41.942;24.220;2023-09-30T01:45:43;16.13;;;8.13;;
22648;SDS011;11491;41.942;24.220;2023-09-30T01:48:10;14.88;;;7.75;;
22648;SDS011;11491;41.942;24.220;2023-09-30T01:50:38;12.25;;;7.60;;
22648;SDS011;11491;41.942;24.220;2023-09-30T01:53:04;13.52;;;7.55;;
22648;SDS011;11491;41.942;24.220;2023-09-30T01:55:32;12.18;;;7.30;;
22648;SDS011;11491;41.942;24.220;2023-09-30T01:58:00;18.65;;;7.82;;
22648;SDS011;11491;41.942;24.220;2023-09-30T02:00:27;13.63;;;6.97;;
22648;SDS011;11491;41.942;24.220;2023-09-30T02:02:55;15.45;;;7.35;;
22648;SDS011;11491;41.942;24.220;2023-09-30T02:05:22;9.60;;;6.38;;
22648;SDS011;11491;41.942;24.220;2023-09-30T02:07:49;11.38;;;7.25;;
22648;SDS011;11491;41.942;24.220;2023-09-30T02:10:16;12.70;;;7.38;;
22648;SDS011;11491;41.942;24.220;2023-09-30T02:12:44;10.82;;;6.63;;
22648;SDS011;11491;41.942;24.220;2023-09-30T02:15:13;13.00;;;6.93;;
22648;SDS011;11491;41.942;24.220;2023-09-30T02:17:41;11.73;;;8.40;;
22648;SDS011;11491;41.942;24.220;2023-09-30T02:20:10;10.75;;;7.72;;
22648;SDS011;11491;41.942;24.220;2023-09-30T02:22:41;11.55;;;7.40;;
22648;SDS011;11491;41.942;24.220;2023-09-30T02:25:09;13.25;;;7.50;;
22648;SDS011;11491;41.942;24.220;2023-09-30T02:27:37;13.63;;;7.85;;
22648;SDS011;11491;41.942;24.220;2023-09-30T02:30:07;8.95;;;6.43;;
22648;SDS011;11491;41.942;24.220;2023-09-30T02:32:37;7.63;;;6.55;;
22648;SDS011;11491;41.942;24.220;2023-09-30T02:35:05;12.90;;;7.50;;
22648;SDS011;11491;41.942;24.220;2023-09-30T02:37:32;13.43;;;6.55;;
22648;SDS011;11491;41.942;24.220;2023-09-30T02:40:01;11.05;;;8.00;;
22648;SDS011;11491;41.942;24.220;2023-09-30T02:42:30;17.02;;;8.50;;
22648;SDS011;11491;41.942;24.220;2023-09-30T02:44:58;9.73;;;7.32;;
22648;SDS011;11491;41.942;24.220;2023-09-30T02:47:25;14.48;;;7.22;;
22648;SDS011;11491;41.942;24.220;2023-09-30T02:49:54;10.43;;;7.57;;
22648;SDS011;11491;41.942;24.220;2023-09-30T02:52:22;11.70;;;8.48;;
22648;SDS011;11491;41.942;24.220;2023-09-30T02:54:48;12.40;;;6.80;;
22648;SDS011;11491;41.942;24.220;2023-09-30T02:57:15;10.90;;;6.90;;
22648;SDS011;11491;41.942;24.220;2023-09-30T02:59:42;13.82;;;7.28;;
22648;SDS011;11491;41.942;24.220;2023-09-30T03:02:09;10.77;;;6.50;;
22648;SDS011;11491;41.942;24.220;2023-09-30T03:04:36;11.10;;;6.88;;
22648;SDS011;11491;41.942;24.220;2023-09-30T03:07:04;18.45;;;6.50;;
22648;SDS011;11491;41.942;24.220;2023-09-30T03:09:32;7.55;;;6.60;;
22648;SDS011;11491;41.942;24.220;2023-09-30T03:11:59;12.80;;;7.50;;
22648;SDS011;11491;41.942;24.220;2023-09-30T03:14:25;14.15;;;6.55;;
22648;SDS011;11491;41.942;24.220;2023-09-30T03:16:56;11.50;;;6.80;;
22648;SDS011;11491;41.942;24.220;2023-09-30T03:19:22;12.57;;;7.88;;
22648;SDS011;11491;41.942;24.220;2023-09-30T03:21:49;12.45;;;6.55;;
22648;SDS011;11491;41.942;24.220;2023-09-30T03:24:17;9.70;;;7.32;;
22648;SDS011;11491;41.942;24.220;2023-09-30T03:26:44;9.95;;;7.47;;
22648;SDS011;11491;41.942;24.220;2023-09-30T03:29:11;13.02;;;7.53;;
22648;SDS011;11491;41.942;24.220;2023-09-30T03:31:37;13.02;;;7.75;;
22648;SDS011;11491;41.942;24.220;2023-09-30T03:34:04;14.38;;;7.93;;
22648;SDS011;11491;41.942;24.220;2023-09-30T03:36:32;16.58;;;7.50;;
22648;SDS011;11491;41.942;24.220;2023-09-30T03:38:58;10.43;;;7.32;;
22648;SDS011;11491;41.942;24.220;2023-09-30T03:41:32;12.30;;;7.40;;
22648;SDS011;11491;41.942;24.220;2023-09-30T03:44:00;10.50;;;7.47;;
22648;SDS011;11491;41.942;24.220;2023-09-30T03:46:31;10.57;;;7.30;;
22648;SDS011;11491;41.942;24.220;2023-09-30T03:48:58;9.80;;;7.15;;
22648;SDS011;11491;41.942;24.220;2023-09-30T03:51:25;13.50;;;7.85;;
22648;SDS011;11491;41.942;24.220;2023-09-30T03:53:52;11.02;;;7.55;;
22648;SDS011;11491;41.942;24.220;2023-09-30T03:56:19;12.90;;;8.38;;
22648;SDS011;11491;41.942;24.220;2023-09-30T03:58:48;20.00;;;14.82;;
22648;SDS011;11491;41.942;24.220;2023-09-30T04:01:15;27.33;;;18.73;;
22648;SDS011;11491;41.942;24.220;2023-09-30T04:03:45;19.70;;;16.35;;
22648;SDS011;11491;41.942;24.220;2023-09-30T04:06:12;19.10;;;15.18;;
22648;SDS011;11491;41.942;24.220;2023-09-30T04:08:38;18.38;;;14.70;;
22648;SDS011;11491;41.942;24.220;2023-09-30T04:11:05;20.08;;;14.52;;
22648;SDS011;11491;41.942;24.220;2023-09-30T04:13:32;16.00;;;11.30;;
22648;SDS011;11491;41.942;24.220;2023-09-30T04:16:01;22.25;;;13.57;;
22648;SDS011;11491;41.942;24.220;2023-09-30T04:18:28;18.38;;;11.55;;
22648;SDS011;11491;41.942;24.220;2023-09-30T04:20:55;15.85;;;10.48;;
22648;SDS011;11491;41.942;24.220;2023-09-30T04:23:22;14.68;;;9.50;;
22648;SDS011;11491;41.942;24.220;2023-09-30T04:25:49;15.27;;;10.38;;
22648;SDS011;11491;41.942;24.220;2023-09-30T04:28:15;14.70;;;9.95;;
22648;SDS011;11491;41.942;24.220;2023-09-30T04:30:46;17.30;;;12.18;;
22648;SDS011;11491;41.942;24.220;2023-09-30T04:33:15;16.50;;;11.70;;
22648;SDS011;11491;41.942;24.220;2023-09-30T04:35:43;14.80;;;11.07;;
22648;SDS011;11491;41.942;24.220;2023-09-30T04:38:10;15.15;;;11.20;;
22648;SDS011;11491;41.942;24.220;2023-09-30T04:40:38;16.10;;;10.93;;
22648;SDS011;11491;41.942;24.220;2023-09-30T04:43:05;14.60;;;11.38;;
22648;SDS011;11491;41.942;24.220;2023-09-30T04:45:32;17.58;;;12.00;;
22648;SDS011;11491;41.942;24.220;2023-09-30T04:47:58;16.05;;;11.57;;
22648;SDS011;11491;41.942;24.220;2023-09-30T04:50:28;16.77;;;11.45;;
22648;SDS011;11491;41.942;24.220;2023-09-30T04:52:55;16.92;;;11.95;;
22648;SDS011;11491;41.942;24.220;2023-09-30T04:55:22;16.70;;;11.68;;
22648;SDS011;11491;41.942;24.220;2023-09-30T04:57:49;14.65;;;10.57;;
22648;SDS011;11491;41.942;24.220;2023-09-30T05:00:17;111.30;;;50.63;;
22648;SDS011;11491;41.942;24.220;2023-09-30T05:02:50;95.18;;;42.83;;
22648;SDS011;11491;41.942;24.220;2023-09-30T05:05:17;121.95;;;65.90;;
22648;SDS011;11491;41.942;24.220;2023-09-30T05:07:45;48.67;;;26.65;;
22648;SDS011;11491;41.942;24.220;2023-09-30T05:10:13;26.77;;;15.23;;
22648;SDS011;11491;41.942;24.220;2023-09-30T05:12:41;26.40;;;13.07;;
22648;SDS011;11491;41.942;24.220;2023-09-30T05:15:10;52.08;;;26.20;;
22648;SDS011;11491;41.942;24.220;2023-09-30T05:17:40;38.50;;;22.20;;
22648;SDS011;11491;41.942;24.220;2023-09-30T05:20:09;107.50;;;59.40;;
22648;SDS011;11491;41.942;24.220;2023-09-30T05:22:37;61.25;;;35.40;;
22648;SDS011;11491;41.942;24.220;2023-09-30T05:25:07;53.88;;;32.90;;
22648;SDS011;11491;41.942;24.220;2023-09-30T05:27:34;55.45;;;33.97;;
22648;SDS011;11491;41.942;24.220;2023-09-30T05:30:01;30.77;;;17.88;;
22648;SDS011;11491;41.942;24.220;2023-09-30T05:32:27;20.80;;;11.55;;
22648;SDS011;11491;41.942;24.220;2023-09-30T05:34:54;20.15;;;12.00;;
22648;SDS011;11491;41.942;24.220;2023-09-30T05:37:23;19.05;;;11.40;;
22648;SDS011;11491;41.942;24.220;2023-09-30T05:39:51;21.63;;;11.98;;
22648;SDS011;11491;41.942;24.220;2023-09-30T05:42:19;17.77;;;12.20;;
22648;SDS011;11491;41.942;24.220;2023-09-30T05:44:47;17.50;;;12.57;;
22648;SDS011;11491;41.942;24.220;2023-09-30T05:47:14;18.08;;;12.45;;
22648;SDS011;11491;41.942;24.220;2023-09-30T05:49:41;16.77;;;12.25;;
22648;SDS011;11491;41.942;24.220;2023-09-30T05:52:08;17.52;;;12.20;;
22648;SDS011;11491;41.942;24.220;2023-09-30T05:54:35;15.52;;;9.38;;
22648;SDS011;11491;41.942;24.220;2023-09-30T05:57:02;19.30;;;8.93;;
22648;SDS011;11491;41.942;24.220;2023-09-30T05:59:30;16.17;;;10.10;;
22648;SDS011;11491;41.942;24.220;2023-09-30T06:01:58;15.05;;;10.80;;
22648;SDS011;11491;41.942;24.220;2023-09-30T06:04:24;29.05;;;15.15;;
22648;SDS011;11491;41.942;24.220;2023-09-30T06:06:50;30.80;;;19.25;;
22648;SDS011;11491;41.942;24.220;2023-09-30T06:09:18;21.02;;;14.40;;
22648;SDS011;11491;41.942;24.220;2023-09-30T06:11:45;29.20;;;13.93;;
22648;SDS011;11491;41.942;24.220;2023-09-30T06:14:12;18.33;;;12.70;;
22648;SDS011;11491;41.942;24.220;2023-09-30T06:16:41;17.73;;;9.40;;
22648;SDS011;11491;41.942;24.220;2023-09-30T06:19:07;13.57;;;9.23;;
22648;SDS011;11491;41.942;24.220;2023-09-30T06:21:34;17.20;;;9.50;;
22648;SDS011;11491;41.942;24.220;2023-09-30T06:24:01;13.85;;;7.25;;
22648;SDS011;11491;41.942;24.220;2023-09-30T06:26:28;17.15;;;7.13;;
22648;SDS011;11491;41.942;24.220;2023-09-30T06:28:55;15.30;;;7.25;;
22648;SDS011;11491;41.942;24.220;2023-09-30T06:31:21;12.95;;;6.68;;
22648;SDS011;11491;41.942;24.220;2023-09-30T06:33:50;13.10;;;7.18;;
22648;SDS011;11491;41.942;24.220;2023-09-30T06:36:17;10.07;;;6.88;;
22648;SDS011;11491;41.942;24.220;2023-09-30T06:38:45;15.23;;;6.88;;
22648;SDS011;11491;41.942;24.220;2023-09-30T06:41:15;11.45;;;7.32;;
22648;SDS011;11491;41.942;24.220;2023-09-30T06:43:43;9.90;;;6.53;;
22648;SDS011;11491;41.942;24.220;2023-09-30T06:46:12;11.40;;;7.13;;
22648;SDS011;11491;41.942;24.220;2023-09-30T06:48:39;13.80;;;7.25;;
22648;SDS011;11491;41.942;24.220;2023-09-30T06:51:12;13.48;;;7.72;;
22648;SDS011;11491;41.942;24.220;2023-09-30T06:53:40;12.27;;;6.72;;
22648;SDS011;11491;41.942;24.220;2023-09-30T06:56:07;11.27;;;6.60;;
22648;SDS011;11491;41.942;24.220;2023-09-30T06:58:33;11.02;;;6.50;;
22648;SDS011;11491;41.942;24.220;2023-09-30T07:01:00;11.68;;;7.15;;
22648;SDS011;11491;41.942;24.220;2023-09-30T07:03:27;25.83;;;7.15;;
22648;SDS011;11491;41.942;24.220;2023-09-30T07:05:55;10.95;;;6.47;;
22648;SDS011;11491;41.942;24.220;2023-09-30T07:08:26;9.90;;;6.22;;
22648;SDS011;11491;41.942;24.220;2023-09-30T07:10:55;13.18;;;6.57;;
22648;SDS011;11491;41.942;24.220;2023-09-30T07:13:21;9.60;;;5.90;;
22648;SDS011;11491;41.942;24.220;2023-09-30T07:15:48;10.65;;;6.38;;
22648;SDS011;11491;41.942;24.220;2023-09-30T07:18:15;13.00;;;6.20;;
22648;SDS011;11491;41.942;24.220;2023-09-30T07:20:42;9.93;;;5.88;;
22648;SDS011;11491;41.942;24.220;2023-09-30T07:23:09;11.23;;;5.53;;
22648;SDS011;11491;41.942;24.220;2023-09-30T07:25:39;8.38;;;6.40;;
22648;SDS011;11491;41.942;24.220;2023-09-30T07:28:06;12.88;;;6.40;;
22648;SDS011;11491;41.942;24.220;2023-09-30T07:30:36;21.40;;;10.32;;
22648;SDS011;11491;41.942;24.220;2023-09-30T07:33:03;19.40;;;7.20;;
22648;SDS011;11491;41.942;24.220;2023-09-30T07:35:30;14.45;;;7.88;;
22648;SDS011;11491;41.942;24.220;2023-09-30T07:37:57;17.95;;;8.23;;
22648;SDS011;11491;41.942;24.220;2023-09-30T07:40:24;14.75;;;7.10;;
22648;SDS011;11491;41.942;24.220;2023-09-30T07:42:52;14.40;;;7.53;;
22648;SDS011;11491;41.942;24.220;2023-09-30T07:45:19;20.48;;;10.35;;
22648;SDS011;11491;41.942;24.220;2023-09-30T07:47:46;20.10;;;8.85;;
22648;SDS011;11491;41.942;24.220;2023-09-30T07:50:14;16.42;;;7.35;;
22648;SDS011;11491;41.942;24.220;2023-09-30T07:52:41;13.05;;;7.18;;
22648;SDS011;11491;41.942;24.220;2023-09-30T07:55:08;26.70;;;9.95;;
22648;SDS011;11491;41.942;24.220;2023-09-30T07:57:35;13.50;;;7.65;;
22648;SDS011;11491;41.942;24.220;2023-09-30T08:00:05;14.85;;;6.50;;
22648;SDS011;11491;41.942;24.220;2023-09-30T08:02:40;12.30;;;6.95;;
22648;SDS011;11491;41.942;24.220;2023-09-30T08:05:07;20.33;;;7.22;;
22648;SDS011;11491;41.942;24.220;2023-09-30T08:07:34;18.13;;;7.30;;
22648;SDS011;11491;41.942;24.220;2023-09-30T08:10:02;13.13;;;8.02;;
22648;SDS011;11491;41.942;24.220;2023-09-30T08:12:32;17.88;;;7.00;;
22648;SDS011;11491;41.942;24.220;2023-09-30T08:14:59;17.25;;;6.65;;
22648;SDS011;11491;41.942;24.220;2023-09-30T08:17:29;11.90;;;6.32;;
22648;SDS011;11491;41.942;24.220;2023-09-30T08:19:56;12.60;;;6.53;;
22648;SDS011;11491;41.942;24.220;2023-09-30T08:22:23;9.98;;;6.32;;
22648;SDS011;11491;41.942;24.220;2023-09-30T08:24:52;13.20;;;6.00;;
22648;SDS011;11491;41.942;24.220;2023-09-30T08:27:19;12.23;;;6.50;;
22648;SDS011;11491;41.942;24.220;2023-09-30T08:29:46;16.05;;;6.30;;
22648;SDS011;11491;41.942;24.220;2023-09-30T08:32:13;8.45;;;5.47;;
22648;SDS011;11491;41.942;24.220;2023-09-30T08:34:41;10.15;;;5.97;;
22648;SDS011;11491;41.942;24.220;2023-09-30T08:37:09;9.57;;;5.80;;
22648;SDS011;11491;41.942;24.220;2023-09-30T08:39:37;14.23;;;6.13;;
22648;SDS011;11491;41.942;24.220;2023-09-30T08:42:05;12.90;;;6.53;;
22648;SDS011;11491;41.942;24.220;2023-09-30T08:44:36;11.35;;;5.63;;
22648;SDS011;11491;41.942;24.220;2023-09-30T08:47:04;17.52;;;6.50;;
22648;SDS011;11491;41.942;24.220;2023-09-30T08:49:32;15.18;;;5.97;;
22648;SDS011;11491;41.942;24.220;2023-09-30T08:52:02;18.45;;;6.85;;
22648;SDS011;11491;41.942;24.220;2023-09-30T08:54:31;15.27;;;6.00;;
22648;SDS011;11491;41.942;24.220;2023-09-30T08:56:58;9.40;;;5.18;;
22648;SDS011;11491;41.942;24.220;2023-09-30T08:59:28;12.45;;;5.95;;
22648;SDS011;11491;41.942;24.220;2023-09-30T09:01:55;11.40;;;5.70;;
22648;SDS011;11491;41.942;24.220;2023-09-30T09:04:23;16.08;;;5.88;;
22648;SDS011;11491;41.942;24.220;2023-09-30T09:06:51;7.40;;;4.68;;
22648;SDS011;11491;41.942;24.220;2023-09-30T09:09:21;13.38;;;4.75;;
22648;SDS011;11491;41.942;24.220;2023-09-30T09:11:50;18.60;;;6.05;;
22648;SDS011;11491;41.942;24.220;2023-09-30T09:14:17;16.75;;;6.90;;
22648;SDS011;11491;41.942;24.220;2023-09-30T09:16:53;12.02;;;6.72;;
22648;SDS011;11491;41.942;24.220;2023-09-30T09:19:21;11.23;;;5.20;;
22648;SDS011;11491;41.942;24.220;2023-09-30T09:21:54;68.15;;;9.02;;
22648;SDS011;11491;41.942;24.220;2023-09-30T09:24:30;15.00;;;5.57;;
22648;SDS011;11491;41.942;24.220;2023-09-30T09:27:04;11.57;;;4.75;;
22648;SDS011;11491;41.942;24.220;2023-09-30T09:29:32;13.45;;;5.47;;
22648;SDS011;11491;41.942;24.220;2023-09-30T09:32:08;9.00;;;5.05;;
22648;SDS011;11491;41.942;24.220;2023-09-30T09:34:36;8.35;;;5.32;;
22648;SDS011;11491;41.942;24.220;2023-09-30T09:37:12;14.38;;;6.03;;
22648;SDS011;11491;41.942;24.220;2023-09-30T09:39:49;10.23;;;5.20;;
22648;SDS011;11491;41.942;24.220;2023-09-30T09:45:05;9.93;;;4.65;;
22648;SDS011;11491;41.942;24.220;2023-09-30T09:47:33;10.48;;;5.32;;
22648;SDS011;11491;41.942;24.220;2023-09-30T09:50:03;10.30;;;4.03;;
22648;SDS011;11491;41.942;24.220;2023-09-30T09:52:31;9.10;;;4.20;;
22648;SDS011;11491;41.942;24.220;2023-09-30T09:55:01;15.02;;;5.97;;
22648;SDS011;11491;41.942;24.220;2023-09-30T09:57:29;10.95;;;5.60;;
22648;SDS011;11491;41.942;24.220;2023-09-30T09:59:57;10.32;;;4.97;;
22648;SDS011;11491;41.942;24.220;2023-09-30T10:02:25;7.40;;;4.38;;
22648;SDS011;11491;41.942;24.220;2023-09-30T10:04:53;8.18;;;5.05;;
22648;SDS011;11491;41.942;24.220;2023-09-30T10:07:21;11.50;;;4.50;;
22648;SDS011;11491;41.942;24.220;2023-09-30T10:09:51;10.23;;;4.10;;
22648;SDS011;11491;41.942;24.220;2023-09-30T10:12:20;12.05;;;4.50;;
22648;SDS011;11491;41.942;24.220;2023-09-30T10:14:48;12.63;;;4.22;;
22648;SDS011;11491;41.942;24.220;2023-09-30T10:17:15;6.07;;;4.60;;
22648;SDS011;11491;41.942;24.220;2023-09-30T10:22:31;11.60;;;4.65;;
22648;SDS011;11491;41.942;24.220;2023-09-30T10:24:58;9.13;;;5.00;;
22648;SDS011;11491;41.942;24.220;2023-09-30T10:27:30;9.93;;;4.93;;
22648;SDS011;11491;41.942;24.220;2023-09-30T10:29:57;9.02;;;5.30;;
22648;SDS011;11491;41.942;24.220;2023-09-30T10:32:36;9.48;;;5.38;;
22648;SDS011;11491;41.942;24.220;2023-09-30T10:35:43;10.50;;;6.50;;
22648;SDS011;11491;41.942;24.220;2023-09-30T10:41:08;6.15;;;4.97;;
22648;SDS011;11491;41.942;24.220;2023-09-30T10:43:37;10.23;;;5.93;;
22648;SDS011;11491;41.942;24.220;2023-09-30T10:52:01;18.50;;;5.60;;
22648;SDS011;11491;41.942;24.220;2023-09-30T10:54:28;14.38;;;6.30;;
22648;SDS011;11491;41.942;24.220;2023-09-30T10:56:57;8.57;;;5.22;;
22648;SDS011;11491;41.942;24.220;2023-09-30T10:59:28;13.32;;;5.75;;
22648;SDS011;11491;41.942;24.220;2023-09-30T11:01:56;12.27;;;5.18;;
22648;SDS011;11491;41.942;24.220;2023-09-30T11:04:23;13.95;;;6.55;;
22648;SDS011;11491;41.942;24.220;2023-09-30T11:06:52;19.92;;;6.28;;
22648;SDS011;11491;41.942;24.220;2023-09-30T11:09:19;10.27;;;5.40;;
22648;SDS011;11491;41.942;24.220;2023-09-30T11:11:47;12.38;;;4.95;;
22648;SDS011;11491;41.942;24.220;2023-09-30T11:14:18;10.43;;;4.75;;
22648;SDS011;11491;41.942;24.220;2023-09-30T11:16:47;13.95;;;5.72;;
22648;SDS011;11491;41.942;24.220;2023-09-30T11:19:15;9.93;;;5.13;;
22648;SDS011;11491;41.942;24.220;2023-09-30T11:21:42;11.82;;;5.95;;
22648;SDS011;11491;41.942;24.220;2023-09-30T11:24:10;6.78;;;5.28;;
22648;SDS011;11491;41.942;24.220;2023-09-30T11:26:37;7.65;;;5.00;;
22648;SDS011;11491;41.942;24.220;2023-09-30T11:29:06;12.07;;;5.20;;
22648;SDS011;11491;41.942;24.220;2023-09-30T11:31:36;11.95;;;4.65;;
22648;SDS011;11491;41.942;24.220;2023-09-30T11:34:05;10.05;;;4.80;;
22648;SDS011;11491;41.942;24.220;2023-09-30T11:36:33;14.43;;;5.35;;
22648;SDS011;11491;41.942;24.220;2023-09-30T11:39:01;8.70;;;5.18;;
22648;SDS011;11491;41.942;24.220;2023-09-30T11:41:34;7.32;;;4.95;;
22648;SDS011;11491;41.942;24.220;2023-09-30T11:44:03;8.63;;;5.07;;
22648;SDS011;11491;41.942;24.220;2023-09-30T11:46:32;10.13;;;5.07;;
22648;SDS011;11491;41.942;24.220;2023-09-30T11:49:00;11.18;;;5.22;;
22648;SDS011;11491;41.942;24.220;2023-09-30T11:51:29;7.85;;;4.60;;
22648;SDS011;11491;41.942;24.220;2023-09-30T11:53:56;9.05;;;4.78;;
22648;SDS011;11491;41.942;24.220;2023-09-30T11:56:23;9.82;;;4.65;;
22648;SDS011;11491;41.942;24.220;2023-09-30T11:58:54;12.10;;;4.95;;
22648;SDS011;11491;41.942;24.220;2023-09-30T12:01:21;5.72;;;4.78;;
22648;SDS011;11491;41.942;24.220;2023-09-30T12:03:50;13.98;;;4.80;;
22648;SDS011;11491;41.942;24.220;2023-09-30T12:06:18;8.13;;;6.50;;
22648;SDS011;11491;41.942;24.220;2023-09-30T12:08:46;7.60;;;4.38;;
22648;SDS011;11491;41.942;24.220;2023-09-30T12:11:13;7.60;;;4.45;;
22648;SDS011;11491;41.942;24.220;2023-09-30T12:13:41;10.63;;;4.72;;
22648;SDS011;11491;41.942;24.220;2023-09-30T12:16:09;13.18;;;4.95;;
22648;SDS011;11491;41.942;24.220;2023-09-30T12:18:38;11.77;;;7.10;;
22648;SDS011;11491;41.942;24.220;2023-09-30T12:21:06;7.75;;;4.38;;
22648;SDS011;11491;41.942;24.220;2023-09-30T12:23:33;9.90;;;5.10;;
22648;SDS011;11491;41.942;24.220;2023-09-30T12:26:01;14.30;;;8.65;;
22648;SDS011;11491;41.942;24.220;2023-09-30T12:28:30;9.18;;;5.05;;
22648;SDS011;11491;41.942;24.220;2023-09-30T12:30:58;16.60;;;8.43;;
22648;SDS011;11491;41.942;24.220;2023-09-30T12:33:24;8.43;;;5.35;;
22648;SDS011;11491;41.942;24.220;2023-09-30T12:35:53;8.18;;;4.95;;
22648;SDS011;11491;41.942;24.220;2023-09-30T12:38:19;13.30;;;4.78;;
22648;SDS011;11491;41.942;24.220;2023-09-30T12:40:47;9.32;;;5.25;;
22648;SDS011;11491;41.942;24.220;2023-09-30T12:43:16;9.23;;;5.00;;
22648;SDS011;11491;41.942;24.220;2023-09-30T12:45:42;8.15;;;5.10;;
22648;SDS011;11491;41.942;24.220;2023-09-30T12:48:10;8.93;;;6.50;;
22648;SDS011;11491;41.942;24.220;2023-09-30T12:50:37;7.75;;;5.72;;
22648;SDS011;11491;41.942;24.220;2023-09-30T12:53:04;13.90;;;5.63;;
22648;SDS011;11491;41.942;24.220;2023-09-30T12:55:32;16.63;;;7.63;;
22648;SDS011;11491;41.942;24.220;2023-09-30T12:57:58;8.35;;;5.70;;
22648;SDS011;11491;41.942;24.220;2023-09-30T13:00:27;12.43;;;5.95;;
22648;SDS011;11491;41.942;24.220;2023-09-30T13:02:55;12.05;;;5.43;;
22648;SDS011;11491;41.942;24.220;2023-09-30T13:05:23;9.65;;;5.72;;
22648;SDS011;11491;41.942;24.220;2023-09-30T13:07:50;10.38;;;5.70;;
22648;SDS011;11491;41.942;24.220;2023-09-30T13:10:17;9.80;;;5.32;;
22648;SDS011;11491;41.942;24.220;2023-09-30T13:12:44;10.70;;;5.35;;
22648;SDS011;11491;41.942;24.220;2023-09-30T13:15:11;10.52;;;5.65;;
22648;SDS011;11491;41.942;24.220;2023-09-30T13:17:40;12.93;;;5.93;;
22648;SDS011;11491;41.942;24.220;2023-09-30T13:20:08;8.43;;;5.28;;
22648;SDS011;11491;41.942;24.220;2023-09-30T13:22:37;9.23;;;5.30;;
22648;SDS011;11491;41.942;24.220;2023-09-30T13:25:04;12.77;;;5.70;;
22648;SDS011;11491;41.942;24.220;2023-09-30T13:27:31;10.98;;;5.50;;
22648;SDS011;11491;41.942;24.220;2023-09-30T13:29:58;9.63;;;6.05;;
22648;SDS011;11491;41.942;24.220;2023-09-30T13:32:26;12.05;;;6.00;;
22648;SDS011;11491;41.942;24.220;2023-09-30T13:34:54;11.10;;;5.50;;
22648;SDS011;11491;41.942;24.220;2023-09-30T13:37:21;8.43;;;5.13;;
22648;SDS011;11491;41.942;24.220;2023-09-30T13:39:55;11.68;;;5.18;;
22648;SDS011;11491;41.942;24.220;2023-09-30T13:42:21;14.25;;;5.30;;
22648;SDS011;11491;41.942;24.220;2023-09-30T13:44:48;9.40;;;4.70;;
22648;SDS011;11491;41.942;24.220;2023-09-30T13:47:15;9.20;;;4.85;;
22648;SDS011;11491;41.942;24.220;2023-09-30T13:49:42;12.40;;;5.10;;
22648;SDS011;11491;41.942;24.220;2023-09-30T13:52:10;10.48;;;5.10;;
22648;SDS011;11491;41.942;24.220;2023-09-30T13:54:36;12.15;;;5.38;;
22648;SDS011;11491;41.942;24.220;2023-09-30T13:57:03;13.98;;;4.93;;
22648;SDS011;11491;41.942;24.220;2023-09-30T13:59:33;9.65;;;4.68;;
22648;SDS011;11491;41.942;24.220;2023-09-30T14:02:00;9.63;;;5.40;;
22648;SDS011;11491;41.942;24.220;2023-09-30T14:04:28;15.82;;;5.70;;
22648;SDS011;11491;41.942;24.220;2023-09-30T14:06:57;12.07;;;5.32;;
22648;SDS011;11491;41.942;24.220;2023-09-30T14:09:26;10.25;;;5.45;;
22648;SDS011;11491;41.942;24.220;2023-09-30T14:11:53;10.30;;;5.28;;
22648;SDS011;11491;41.942;24.220;2023-09-30T14:14:20;8.82;;;4.85;;
22648;SDS011;11491;41.942;24.220;2023-09-30T14:16:47;8.93;;;4.80;;
22648;SDS011;11491;41.942;24.220;2023-09-30T14:19:13;12.35;;;5.40;;
22648;SDS011;11491;41.942;24.220;2023-09-30T14:21:40;9.30;;;4.90;;
22648;SDS011;11491;41.942;24.220;2023-09-30T14:24:07;7.38;;;4.70;;
22648;SDS011;11491;41.942;24.220;2023-09-30T14:26:35;9.05;;;5.20;;
22648;SDS011;11491;41.942;24.220;2023-09-30T14:29:02;7.55;;;5.18;;
22648;SDS011;11491;41.942;24.220;2023-09-30T14:31:29;13.82;;;4.88;;
22648;SDS011;11491;41.942;24.220;2023-09-30T14:33:56;7.90;;;5.47;;
22648;SDS011;11491;41.942;24.220;2023-09-30T14:36:23;13.50;;;5.43;;
22648;SDS011;11491;41.942;24.220;2023-09-30T14:38:49;12.15;;;5.78;;
22648;SDS011;11491;41.942;24.220;2023-09-30T14:41:16;14.13;;;5.18;;